sensor_id;sensor_type;location;lat;lon;timestamp;P1;durP1;ratioP1;P2;durP2;ratioP2
16039;SDS011;8124;48.634;8.120;2023-04-03T00:00:32;37.15;;;33.25;;
16039;SDS011;8124;48.634;8.120;2023-04-03T00:05:37;36.55;;;32.65;;
16039;SDS011;8124;48.634;8.120;2023-04-03T00:10:40;36.15;;;32.35;;
16039;SDS011;8124;48.634;8.120;2023-04-03T00:15:43;35.83;;;32.03;;
16039;SDS011;8124;48.634;8.120;2023-04-03T00:20:48;35.90;;;32.00;;
16039;SDS011;8124;48.634;8.120;2023-04-03T00:25:51;35.77;;;31.97;;
16039;SDS011;8124;48.634;8.120;2023-04-03T00:30:54;35.95;;;32.00;;
16039;SDS011;8124;48.634;8.120;2023-04-03T00:35:59;39.08;;;31.98;;
16039;SDS011;8124;48.634;8.120;2023-04-03T00:41:07;38.15;;;32.70;;
16039;SDS011;8124;48.634;8.120;2023-04-03T00:46:10;36.95;;;32.95;;
16039;SDS011;8124;48.634;8.120;2023-04-03T00:51:16;36.63;;;32.72;;
16039;SDS011;8124;48.634;8.120;2023-04-03T00:56:23;36.33;;;32.42;;
16039;SDS011;8124;48.634;8.120;2023-04-03T01:01:29;36.35;;;32.47;;
16039;SDS011;8124;48.634;8.120;2023-04-03T01:06:35;36.55;;;32.65;;
16039;SDS011;8124;48.634;8.120;2023-04-03T01:11:41;36.92;;;33.03;;
16039;SDS011;8124;48.634;8.120;2023-04-03T01:16:51;36.38;;;32.47;;
16039;SDS011;8124;48.634;8.120;2023-04-03T01:27:22;36.78;;;32.90;;
16039;SDS011;8124;48.634;8.120;2023-04-03T01:32:26;36.97;;;33.00;;
16039;SDS011;8124;48.634;8.120;2023-04-03T01:37:29;36.33;;;32.42;;
16039;SDS011;8124;48.634;8.120;2023-04-03T01:42:32;36.03;;;32.10;;
16039;SDS011;8124;48.634;8.120;2023-04-03T01:47:37;35.90;;;32.17;;
16039;SDS011;8124;48.634;8.120;2023-04-03T01:52:40;35.85;;;32.05;;
16039;SDS011;8124;48.634;8.120;2023-04-03T01:57:43;36.22;;;32.42;;
16039;SDS011;8124;48.634;8.120;2023-04-03T02:02:47;36.10;;;32.25;;
16039;SDS011;8124;48.634;8.120;2023-04-03T02:07:50;36.38;;;32.53;;
16039;SDS011;8124;48.634;8.120;2023-04-03T02:12:53;35.70;;;31.92;;
16039;SDS011;8124;48.634;8.120;2023-04-03T02:17:58;35.60;;;31.90;;
16039;SDS011;8124;48.634;8.120;2023-04-03T02:23:01;35.42;;;31.73;;
16039;SDS011;8124;48.634;8.120;2023-04-03T02:28:04;35.70;;;31.98;;
16039;SDS011;8124;48.634;8.120;2023-04-03T02:33:08;38.88;;;33.03;;
16039;SDS011;8124;48.634;8.120;2023-04-03T02:38:13;36.30;;;32.40;;
16039;SDS011;8124;48.634;8.120;2023-04-03T02:43:16;36.33;;;32.42;;
16039;SDS011;8124;48.634;8.120;2023-04-03T02:48:21;36.78;;;32.80;;
16039;SDS011;8124;48.634;8.120;2023-04-03T02:53:24;36.70;;;32.80;;
16039;SDS011;8124;48.634;8.120;2023-04-03T02:58:27;36.08;;;32.28;;
16039;SDS011;8124;48.634;8.120;2023-04-03T03:03:34;36.33;;;32.53;;
16039;SDS011;8124;48.634;8.120;2023-04-03T03:08:37;36.28;;;32.38;;
16039;SDS011;8124;48.634;8.120;2023-04-03T03:13:40;37.47;;;33.03;;
16039;SDS011;8124;48.634;8.120;2023-04-03T03:18:48;37.40;;;32.80;;
16039;SDS011;8124;48.634;8.120;2023-04-03T03:23:51;36.30;;;32.40;;
16039;SDS011;8124;48.634;8.120;2023-04-03T03:28:54;37.13;;;33.22;;
16039;SDS011;8124;48.634;8.120;2023-04-03T03:33:58;36.17;;;32.38;;
16039;SDS011;8124;48.634;8.120;2023-04-03T03:39:01;39.30;;;34.97;;
16039;SDS011;8124;48.634;8.120;2023-04-03T03:44:04;38.67;;;34.45;;
16039;SDS011;8124;48.634;8.120;2023-04-03T03:49:09;42.35;;;37.75;;
16039;SDS011;8124;48.634;8.120;2023-04-03T03:54:13;37.60;;;33.60;;
16039;SDS011;8124;48.634;8.120;2023-04-03T03:59:17;38.80;;;33.53;;
16039;SDS011;8124;48.634;8.120;2023-04-03T04:04:22;37.20;;;33.20;;
16039;SDS011;8124;48.634;8.120;2023-04-03T04:09:26;37.28;;;33.28;;
16039;SDS011;8124;48.634;8.120;2023-04-03T04:14:29;37.13;;;33.22;;
16039;SDS011;8124;48.634;8.120;2023-04-03T04:19:35;37.20;;;33.27;;
16039;SDS011;8124;48.634;8.120;2023-04-03T04:24:38;38.33;;;34.22;;
16039;SDS011;8124;48.634;8.120;2023-04-03T04:29:42;36.78;;;32.88;;
16039;SDS011;8124;48.634;8.120;2023-04-03T04:34:47;36.22;;;32.40;;
16039;SDS011;8124;48.634;8.120;2023-04-03T04:39:51;36.50;;;32.63;;
16039;SDS011;8124;48.634;8.120;2023-04-03T04:44:54;36.83;;;32.83;;
16039;SDS011;8124;48.634;8.120;2023-04-03T04:49:59;37.13;;;33.13;;
16039;SDS011;8124;48.634;8.120;2023-04-03T04:55:03;40.30;;;33.63;;
16039;SDS011;8124;48.634;8.120;2023-04-03T05:00:07;37.65;;;33.70;;
16039;SDS011;8124;48.634;8.120;2023-04-03T05:05:12;37.58;;;33.47;;
16039;SDS011;8124;48.634;8.120;2023-04-03T05:10:16;38.97;;;33.75;;
16039;SDS011;8124;48.634;8.120;2023-04-03T05:15:20;37.15;;;33.15;;
16039;SDS011;8124;48.634;8.120;2023-04-03T05:20:25;36.63;;;32.72;;
16039;SDS011;8124;48.634;8.120;2023-04-03T05:25:28;36.45;;;32.65;;
16039;SDS011;8124;48.634;8.120;2023-04-03T05:30:32;36.80;;;32.90;;
16039;SDS011;8124;48.634;8.120;2023-04-03T05:35:38;36.72;;;32.83;;
16039;SDS011;8124;48.634;8.120;2023-04-03T05:40:46;36.05;;;32.13;;
16039;SDS011;8124;48.634;8.120;2023-04-03T05:45:50;36.72;;;32.83;;
16039;SDS011;8124;48.634;8.120;2023-04-03T05:50:56;35.97;;;32.20;;
16039;SDS011;8124;48.634;8.120;2023-04-03T05:56:00;35.55;;;31.85;;
16039;SDS011;8124;48.634;8.120;2023-04-03T06:01:06;36.17;;;32.35;;
16039;SDS011;8124;48.634;8.120;2023-04-03T06:06:13;36.13;;;32.22;;
16039;SDS011;8124;48.634;8.120;2023-04-03T06:11:16;36.17;;;32.38;;
16039;SDS011;8124;48.634;8.120;2023-04-03T06:16:20;36.47;;;32.67;;
16039;SDS011;8124;48.634;8.120;2023-04-03T06:21:24;35.83;;;31.65;;
16039;SDS011;8124;48.634;8.120;2023-04-03T06:26:28;36.03;;;32.15;;
16039;SDS011;8124;48.634;8.120;2023-04-03T06:31:31;37.17;;;31.55;;
16039;SDS011;8124;48.634;8.120;2023-04-03T06:36:35;36.10;;;31.55;;
16039;SDS011;8124;48.634;8.120;2023-04-03T06:41:38;34.92;;;31.13;;
16039;SDS011;8124;48.634;8.120;2023-04-03T06:46:42;35.30;;;31.50;;
16039;SDS011;8124;48.634;8.120;2023-04-03T06:51:48;35.45;;;31.75;;
16039;SDS011;8124;48.634;8.120;2023-04-03T06:56:51;35.53;;;31.73;;
16039;SDS011;8124;48.634;8.120;2023-04-03T07:01:54;35.08;;;31.27;;
16039;SDS011;8124;48.634;8.120;2023-04-03T07:06:59;34.97;;;31.27;;
16039;SDS011;8124;48.634;8.120;2023-04-03T07:12:02;35.78;;;31.88;;
16039;SDS011;8124;48.634;8.120;2023-04-03T07:17:05;34.78;;;31.15;;
16039;SDS011;8124;48.634;8.120;2023-04-03T07:22:10;35.20;;;31.50;;
16039;SDS011;8124;48.634;8.120;2023-04-03T07:27:14;35.13;;;31.33;;
16039;SDS011;8124;48.634;8.120;2023-04-03T07:32:17;34.60;;;31.00;;
16039;SDS011;8124;48.634;8.120;2023-04-03T07:37:21;35.50;;;31.70;;
16039;SDS011;8124;48.634;8.120;2023-04-03T07:42:24;34.95;;;31.27;;
16039;SDS011;8124;48.634;8.120;2023-04-03T07:47:28;35.10;;;31.40;;
16039;SDS011;8124;48.634;8.120;2023-04-03T07:52:36;35.38;;;31.58;;
16039;SDS011;8124;48.634;8.120;2023-04-03T07:57:39;36.08;;;32.17;;
16039;SDS011;8124;48.634;8.120;2023-04-03T08:02:52;34.88;;;31.17;;
16039;SDS011;8124;48.634;8.120;2023-04-03T08:07:56;35.58;;;31.88;;
16039;SDS011;8124;48.634;8.120;2023-04-03T08:13:02;35.55;;;31.73;;
16039;SDS011;8124;48.634;8.120;2023-04-03T08:18:06;34.78;;;31.15;;
16039;SDS011;8124;48.634;8.120;2023-04-03T08:23:10;35.35;;;31.60;;
16039;SDS011;8124;48.634;8.120;2023-04-03T08:28:23;35.10;;;31.40;;
16039;SDS011;8124;48.634;8.120;2023-04-03T08:33:26;35.72;;;31.95;;
16039;SDS011;8124;48.634;8.120;2023-04-03T08:38:31;35.70;;;31.92;;
16039;SDS011;8124;48.634;8.120;2023-04-03T08:43:43;35.88;;;32.08;;
16039;SDS011;8124;48.634;8.120;2023-04-03T08:49:01;35.45;;;31.65;;
16039;SDS011;8124;48.634;8.120;2023-04-03T08:54:06;35.33;;;31.63;;
16039;SDS011;8124;48.634;8.120;2023-04-03T08:59:24;36.15;;;32.25;;
16039;SDS011;8124;48.634;8.120;2023-04-03T09:05:05;36.28;;;32.47;;
16039;SDS011;8124;48.634;8.120;2023-04-03T09:10:18;37.33;;;33.33;;
16039;SDS011;8124;48.634;8.120;2023-04-03T09:15:30;36.35;;;32.53;;
16039;SDS011;8124;48.634;8.120;2023-04-03T09:26:36;36.05;;;32.25;;
16039;SDS011;8124;48.634;8.120;2023-04-03T09:31:54;36.70;;;32.78;;
16039;SDS011;8124;48.634;8.120;2023-04-03T09:37:08;36.53;;;32.53;;
16039;SDS011;8124;48.634;8.120;2023-04-03T09:47:18;35.88;;;32.08;;
16039;SDS011;8124;48.634;8.120;2023-04-03T09:52:25;36.13;;;32.30;;
16039;SDS011;8124;48.634;8.120;2023-04-03T09:57:32;36.50;;;32.60;;
16039;SDS011;8124;48.634;8.120;2023-04-03T10:02:37;36.35;;;32.45;;
16039;SDS011;8124;48.634;8.120;2023-04-03T10:07:42;36.92;;;33.03;;
16039;SDS011;8124;48.634;8.120;2023-04-03T10:13:05;36.90;;;32.90;;
16039;SDS011;8124;48.634;8.120;2023-04-03T10:18:22;37.63;;;33.53;;
16039;SDS011;8124;48.634;8.120;2023-04-03T10:23:36;36.35;;;32.55;;
16039;SDS011;8124;48.634;8.120;2023-04-03T10:28:45;36.65;;;32.75;;
16039;SDS011;8124;48.634;8.120;2023-04-03T10:33:58;37.20;;;33.22;;
16039;SDS011;8124;48.634;8.120;2023-04-03T10:39:17;37.13;;;33.00;;
16039;SDS011;8124;48.634;8.120;2023-04-03T10:44:29;36.85;;;32.67;;
16039;SDS011;8124;48.634;8.120;2023-04-03T10:49:43;37.33;;;32.97;;
16039;SDS011;8124;48.634;8.120;2023-04-03T10:55:02;36.90;;;32.97;;
16039;SDS011;8124;48.634;8.120;2023-04-03T11:00:25;37.38;;;33.38;;
16039;SDS011;8124;48.634;8.120;2023-04-03T11:05:39;36.50;;;32.67;;
16039;SDS011;8124;48.634;8.120;2023-04-03T11:10:46;37.75;;;33.65;;
16039;SDS011;8124;48.634;8.120;2023-04-03T11:15:53;37.22;;;33.22;;
16039;SDS011;8124;48.634;8.120;2023-04-03T11:20:58;37.55;;;33.10;;
16039;SDS011;8124;48.634;8.120;2023-04-03T11:26:07;37.00;;;33.10;;
16039;SDS011;8124;48.634;8.120;2023-04-03T11:31:20;37.50;;;33.50;;
16039;SDS011;8124;48.634;8.120;2023-04-03T11:36:34;36.88;;;32.92;;
16039;SDS011;8124;48.634;8.120;2023-04-03T11:41:49;37.03;;;33.03;;
16039;SDS011;8124;48.634;8.120;2023-04-03T11:47:04;37.50;;;33.50;;
16039;SDS011;8124;48.634;8.120;2023-04-03T11:52:10;37.30;;;33.17;;
16039;SDS011;8124;48.634;8.120;2023-04-03T12:02:57;37.60;;;33.60;;
16039;SDS011;8124;48.634;8.120;2023-04-03T12:08:21;37.05;;;33.08;;
16039;SDS011;8124;48.634;8.120;2023-04-03T12:18:43;37.25;;;33.25;;
16039;SDS011;8124;48.634;8.120;2023-04-03T12:24:02;37.33;;;33.30;;
16039;SDS011;8124;48.634;8.120;2023-04-03T12:29:18;36.42;;;32.53;;
16039;SDS011;8124;48.634;8.120;2023-04-03T12:34:27;37.90;;;32.47;;
16039;SDS011;8124;48.634;8.120;2023-04-03T12:39:50;37.28;;;32.83;;
16039;SDS011;8124;48.634;8.120;2023-04-03T12:44:58;36.75;;;32.75;;
16039;SDS011;8124;48.634;8.120;2023-04-03T12:50:13;36.67;;;32.70;;
16039;SDS011;8124;48.634;8.120;2023-04-03T12:55:22;37.03;;;33.08;;
16039;SDS011;8124;48.634;8.120;2023-04-03T13:00:29;37.60;;;33.13;;
16039;SDS011;8124;48.634;8.120;2023-04-03T13:05:35;37.78;;;32.85;;
16039;SDS011;8124;48.634;8.120;2023-04-03T13:10:49;38.38;;;33.33;;
16039;SDS011;8124;48.634;8.120;2023-04-03T13:15:55;36.83;;;32.88;;
16039;SDS011;8124;48.634;8.120;2023-04-03T13:21:01;36.70;;;32.70;;
16039;SDS011;8124;48.634;8.120;2023-04-03T13:26:08;37.05;;;33.05;;
16039;SDS011;8124;48.634;8.120;2023-04-03T13:31:18;37.72;;;32.70;;
16039;SDS011;8124;48.634;8.120;2023-04-03T13:36:26;36.63;;;32.72;;
16039;SDS011;8124;48.634;8.120;2023-04-03T13:41:33;36.80;;;32.90;;
16039;SDS011;8124;48.634;8.120;2023-04-03T13:46:37;36.83;;;32.85;;
16039;SDS011;8124;48.634;8.120;2023-04-03T13:51:41;36.67;;;32.70;;
16039;SDS011;8124;48.634;8.120;2023-04-03T13:56:52;36.92;;;32.95;;
16039;SDS011;8124;48.634;8.120;2023-04-03T14:02:09;37.15;;;33.10;;
16039;SDS011;8124;48.634;8.120;2023-04-03T14:07:17;36.78;;;32.88;;
16039;SDS011;8124;48.634;8.120;2023-04-03T14:12:24;37.13;;;33.08;;
16039;SDS011;8124;48.634;8.120;2023-04-03T14:17:32;38.20;;;33.28;;
16039;SDS011;8124;48.634;8.120;2023-04-03T14:22:35;36.42;;;32.53;;
16039;SDS011;8124;48.634;8.120;2023-04-03T14:27:40;36.67;;;32.78;;
16039;SDS011;8124;48.634;8.120;2023-04-03T14:32:45;36.90;;;32.63;;
16039;SDS011;8124;48.634;8.120;2023-04-03T14:37:48;44.50;;;33.47;;
16039;SDS011;8124;48.634;8.120;2023-04-03T14:42:54;36.63;;;32.72;;
16039;SDS011;8124;48.634;8.120;2023-04-03T14:47:58;37.33;;;33.03;;
16039;SDS011;8124;48.634;8.120;2023-04-03T14:53:02;37.42;;;33.42;;
16039;SDS011;8124;48.634;8.120;2023-04-03T14:58:08;36.67;;;32.78;;
16039;SDS011;8124;48.634;8.120;2023-04-03T15:03:15;36.55;;;32.70;;
16039;SDS011;8124;48.634;8.120;2023-04-03T15:08:21;36.50;;;32.53;;
16039;SDS011;8124;48.634;8.120;2023-04-03T15:13:28;37.13;;;32.95;;
16039;SDS011;8124;48.634;8.120;2023-04-03T15:18:32;36.78;;;32.88;;
16039;SDS011;8124;48.634;8.120;2023-04-03T15:23:39;39.83;;;32.60;;
16039;SDS011;8124;48.634;8.120;2023-04-03T15:28:44;37.25;;;33.25;;
16039;SDS011;8124;48.634;8.120;2023-04-03T15:33:47;36.92;;;32.92;;
16039;SDS011;8124;48.634;8.120;2023-04-03T15:38:50;37.83;;;33.72;;
16039;SDS011;8124;48.634;8.120;2023-04-03T15:43:54;37.15;;;33.25;;
16039;SDS011;8124;48.634;8.120;2023-04-03T15:48:57;37.55;;;33.58;;
16039;SDS011;8124;48.634;8.120;2023-04-03T15:54:00;37.58;;;33.58;;
16039;SDS011;8124;48.634;8.120;2023-04-03T15:59:16;37.65;;;33.55;;
16039;SDS011;8124;48.634;8.120;2023-04-03T16:04:19;36.72;;;32.75;;
16039;SDS011;8124;48.634;8.120;2023-04-03T16:09:22;40.50;;;33.75;;
16039;SDS011;8124;48.634;8.120;2023-04-03T16:14:27;36.97;;;33.08;;
16039;SDS011;8124;48.634;8.120;2023-04-03T16:19:31;36.50;;;32.60;;
16039;SDS011;8124;48.634;8.120;2023-04-03T16:24:34;36.95;;;32.78;;
16039;SDS011;8124;48.634;8.120;2023-04-03T16:29:40;37.88;;;33.13;;
16039;SDS011;8124;48.634;8.120;2023-04-03T16:34:43;36.47;;;32.47;;
16039;SDS011;8124;48.634;8.120;2023-04-03T16:39:47;36.78;;;32.80;;
16039;SDS011;8124;48.634;8.120;2023-04-03T16:44:51;36.42;;;32.53;;
16039;SDS011;8124;48.634;8.120;2023-04-03T16:49:54;36.15;;;32.25;;
16039;SDS011;8124;48.634;8.120;2023-04-03T16:54:57;36.15;;;32.25;;
16039;SDS011;8124;48.634;8.120;2023-04-03T17:00:02;38.03;;;33.08;;
16039;SDS011;8124;48.634;8.120;2023-04-03T17:05:07;36.72;;;32.72;;
16039;SDS011;8124;48.634;8.120;2023-04-03T17:10:11;36.60;;;32.70;;
16039;SDS011;8124;48.634;8.120;2023-04-03T17:15:16;36.78;;;32.90;;
16039;SDS011;8124;48.634;8.120;2023-04-03T17:20:21;36.97;;;32.88;;
16039;SDS011;8124;48.634;8.120;2023-04-03T17:25:24;36.70;;;32.70;;
16039;SDS011;8124;48.634;8.120;2023-04-03T17:30:28;36.70;;;32.70;;
16039;SDS011;8124;48.634;8.120;2023-04-03T17:35:31;37.08;;;32.78;;
16039;SDS011;8124;48.634;8.120;2023-04-03T17:40:34;36.88;;;33.00;;
16039;SDS011;8124;48.634;8.120;2023-04-03T17:45:38;37.97;;;32.65;;
16039;SDS011;8124;48.634;8.120;2023-04-03T17:50:42;37.17;;;33.22;;
16039;SDS011;8124;48.634;8.120;2023-04-03T17:55:45;36.83;;;32.83;;
16039;SDS011;8124;48.634;8.120;2023-04-03T18:00:49;36.45;;;32.55;;
16039;SDS011;8124;48.634;8.120;2023-04-03T18:05:54;36.45;;;32.55;;
16039;SDS011;8124;48.634;8.120;2023-04-03T18:10:57;36.63;;;32.70;;
16039;SDS011;8124;48.634;8.120;2023-04-03T18:16:03;36.35;;;32.30;;
16039;SDS011;8124;48.634;8.120;2023-04-03T18:21:08;37.40;;;33.40;;
16039;SDS011;8124;48.634;8.120;2023-04-03T18:26:13;37.83;;;33.65;;
16039;SDS011;8124;48.634;8.120;2023-04-03T18:31:22;36.47;;;32.60;;
16039;SDS011;8124;48.634;8.120;2023-04-03T18:36:27;38.70;;;32.85;;
16039;SDS011;8124;48.634;8.120;2023-04-03T18:41:31;39.67;;;34.42;;
16039;SDS011;8124;48.634;8.120;2023-04-03T18:46:37;38.13;;;32.92;;
16039;SDS011;8124;48.634;8.120;2023-04-03T18:51:41;37.55;;;33.53;;
16039;SDS011;8124;48.634;8.120;2023-04-03T19:02:28;37.63;;;33.33;;
16039;SDS011;8124;48.634;8.120;2023-04-03T19:07:31;38.10;;;33.28;;
16039;SDS011;8124;48.634;8.120;2023-04-03T19:12:35;39.08;;;33.58;;
16039;SDS011;8124;48.634;8.120;2023-04-03T19:17:39;37.55;;;33.53;;
16039;SDS011;8124;48.634;8.120;2023-04-03T19:22:43;40.15;;;33.60;;
16039;SDS011;8124;48.634;8.120;2023-04-03T19:27:46;42.65;;;37.28;;
16039;SDS011;8124;48.634;8.120;2023-04-03T19:32:53;38.40;;;33.70;;
16039;SDS011;8124;48.634;8.120;2023-04-03T19:37:57;37.83;;;33.83;;
16039;SDS011;8124;48.634;8.120;2023-04-03T19:43:00;38.33;;;34.08;;
16039;SDS011;8124;48.634;8.120;2023-04-03T19:48:04;38.03;;;33.67;;
16039;SDS011;8124;48.634;8.120;2023-04-03T19:53:08;38.28;;;33.97;;
16039;SDS011;8124;48.634;8.120;2023-04-03T19:58:14;38.25;;;34.15;;
16039;SDS011;8124;48.634;8.120;2023-04-03T20:03:19;38.65;;;34.28;;
16039;SDS011;8124;48.634;8.120;2023-04-03T20:08:22;39.67;;;34.50;;
16039;SDS011;8124;48.634;8.120;2023-04-03T20:13:26;38.85;;;34.33;;
16039;SDS011;8124;48.634;8.120;2023-04-03T20:18:31;38.97;;;34.65;;
16039;SDS011;8124;48.634;8.120;2023-04-03T20:23:35;37.65;;;33.55;;
16039;SDS011;8124;48.634;8.120;2023-04-03T20:28:39;39.03;;;33.85;;
16039;SDS011;8124;48.634;8.120;2023-04-03T20:33:43;38.97;;;33.80;;
16039;SDS011;8124;48.634;8.120;2023-04-03T20:38:46;38.15;;;33.53;;
16039;SDS011;8124;48.634;8.120;2023-04-03T20:43:49;37.67;;;33.58;;
16039;SDS011;8124;48.634;8.120;2023-04-03T20:48:54;37.90;;;33.80;;
16039;SDS011;8124;48.634;8.120;2023-04-03T20:53:58;37.38;;;33.30;;
16039;SDS011;8124;48.634;8.120;2023-04-03T20:59:01;39.53;;;34.13;;
16039;SDS011;8124;48.634;8.120;2023-04-03T21:04:08;37.38;;;33.38;;
16039;SDS011;8124;48.634;8.120;2023-04-03T21:20:38;36.97;;;33.05;;
16039;SDS011;8124;48.634;8.120;2023-04-03T21:25:44;36.78;;;32.88;;
16039;SDS011;8124;48.634;8.120;2023-04-03T21:30:47;38.08;;;33.72;;
16039;SDS011;8124;48.634;8.120;2023-04-03T21:35:52;37.28;;;33.17;;
16039;SDS011;8124;48.634;8.120;2023-04-03T21:40:58;37.05;;;33.15;;
16039;SDS011;8124;48.634;8.120;2023-04-03T21:46:01;36.38;;;32.47;;
16039;SDS011;8124;48.634;8.120;2023-04-03T21:51:07;37.38;;;33.03;;
16039;SDS011;8124;48.634;8.120;2023-04-03T21:56:11;36.63;;;32.55;;
16039;SDS011;8124;48.634;8.120;2023-04-03T22:01:14;36.88;;;32.75;;
16039;SDS011;8124;48.634;8.120;2023-04-03T22:06:19;36.63;;;32.63;;
16039;SDS011;8124;48.634;8.120;2023-04-03T22:11:22;36.75;;;32.85;;
16039;SDS011;8124;48.634;8.120;2023-04-03T22:16:27;36.25;;;32.35;;
16039;SDS011;8124;48.634;8.120;2023-04-03T22:21:32;36.67;;;32.78;;
16039;SDS011;8124;48.634;8.120;2023-04-03T22:26:35;36.63;;;32.75;;
16039;SDS011;8124;48.634;8.120;2023-04-03T22:31:39;37.78;;;32.03;;
16039;SDS011;8124;48.634;8.120;2023-04-03T22:36:44;35.85;;;32.00;;
16039;SDS011;8124;48.634;8.120;2023-04-03T22:41:47;35.92;;;32.13;;
16039;SDS011;8124;48.634;8.120;2023-04-03T22:46:50;35.63;;;31.73;;
16039;SDS011;8124;48.634;8.120;2023-04-03T22:51:55;35.50;;;31.60;;
16039;SDS011;8124;48.634;8.120;2023-04-03T22:56:58;35.55;;;31.73;;
16039;SDS011;8124;48.634;8.120;2023-04-03T23:02:01;35.53;;;31.70;;
16039;SDS011;8124;48.634;8.120;2023-04-03T23:07:05;35.25;;;31.40;;
16039;SDS011;8124;48.634;8.120;2023-04-03T23:12:08;35.28;;;31.48;;
16039;SDS011;8124;48.634;8.120;2023-04-03T23:17:11;36.05;;;32.08;;
16039;SDS011;8124;48.634;8.120;2023-04-03T23:22:15;36.22;;;32.17;;
16039;SDS011;8124;48.634;8.120;2023-04-03T23:27:18;36.33;;;31.92;;
16039;SDS011;8124;48.634;8.120;2023-04-03T23:32:21;35.25;;;31.42;;
16039;SDS011;8124;48.634;8.120;2023-04-03T23:37:26;35.60;;;31.80;;
16039;SDS011;8124;48.634;8.120;2023-04-03T23:42:28;35.45;;;31.58;;
16039;SDS011;8124;48.634;8.120;2023-04-03T23:47:32;35.55;;;31.48;;
16039;SDS011;8124;48.634;8.120;2023-04-03T23:52:36;35.35;;;31.55;;
16039;SDS011;8124;48.634;8.120;2023-04-03T23:57:40;35.05;;;31.40;;
